createdAt,value
2022-08-27T00:00:06.368Z,13.47
2022-08-27T00:01:17.045Z,13.93
2022-08-27T00:02:22.913Z,14.30
2022-08-27T00:03:31.562Z,13.17
2022-08-27T00:04:36.469Z,12.10
2022-08-27T00:05:39.604Z,11.37
2022-08-27T00:06:43.222Z,11.20
2022-08-27T00:07:50.082Z,9.07
2022-08-27T00:08:56.087Z,9.00
2022-08-27T00:10:00.406Z,9.40
2022-08-27T00:11:01.993Z,7.60
2022-08-27T00:12:08.019Z,7.77
2022-08-27T00:13:09.943Z,8.03
2022-08-27T00:14:13.011Z,8.87
2022-08-27T00:15:17.850Z,6.67
2022-08-27T00:16:21.669Z,7.90
2022-08-27T00:17:35.104Z,6.90
2022-08-27T00:18:38.845Z,7.63
2022-08-27T00:19:47.243Z,8.13
2022-08-27T00:20:53.433Z,6.90
2022-08-27T00:21:58.316Z,6.63
2022-08-27T00:23:06.443Z,6.70
2022-08-27T00:24:09.062Z,6.80
2022-08-27T00:25:12.301Z,6.83
2022-08-27T00:26:18.204Z,5.97
2022-08-27T00:27:23.430Z,5.80
2022-08-27T00:28:29.640Z,6.00
2022-08-27T00:29:31.799Z,5.83
2022-08-27T00:30:34.683Z,6.10
2022-08-27T00:31:36.740Z,6.23
2022-08-27T00:32:40.360Z,6.63
2022-08-27T00:33:43.431Z,6.10
2022-08-27T00:34:46.308Z,6.10
2022-08-27T00:35:48.342Z,6.20
2022-08-27T00:36:53.026Z,6.63
2022-08-27T00:37:56.275Z,6.60
2022-08-27T00:38:59.496Z,6.47
2022-08-27T00:40:01.648Z,6.30
2022-08-27T00:41:05.964Z,5.50
2022-08-27T00:42:08.267Z,6.10
2022-08-27T00:43:11.195Z,5.70
2022-08-27T00:44:13.344Z,5.73
2022-08-27T00:45:19.675Z,6.00
2022-08-27T00:46:25.252Z,5.63
2022-08-27T00:47:30.972Z,5.90
2022-08-27T00:48:35.892Z,5.87
2022-08-27T00:49:42.600Z,5.30
2022-08-27T00:50:47.932Z,5.80
2022-08-27T00:51:58.351Z,5.33
2022-08-27T00:53:05.222Z,4.70
2022-08-27T00:54:09.359Z,4.63
2022-08-27T00:55:17.956Z,5.10
2022-08-27T00:56:24.575Z,5.40
2022-08-27T00:57:28.097Z,5.10
2022-08-27T00:58:32.580Z,4.10
2022-08-27T00:59:35.205Z,4.43
2022-08-27T01:00:37.359Z,4.50
2022-08-27T01:01:59.920Z,5.03
2022-08-27T01:03:01.591Z,4.43
2022-08-27T01:04:06.425Z,4.00
2022-08-27T01:05:10.752Z,4.00
2022-08-27T01:06:16.291Z,3.90
2022-08-27T01:07:19.095Z,4.13
2022-08-27T01:08:25.768Z,4.27
2022-08-27T01:09:28.196Z,3.87
2022-08-27T01:10:30.998Z,4.23
2022-08-27T01:11:33.223Z,3.93
2022-08-27T01:12:37.327Z,4.50
2022-08-27T01:13:54.446Z,4.63
2022-08-27T01:15:04.739Z,4.60
2022-08-27T01:16:08.419Z,4.60
2022-08-27T01:17:12.169Z,4.53
2022-08-27T01:18:14.936Z,4.70
2022-08-27T01:19:28.697Z,4.53
2022-08-27T01:20:42.304Z,4.30
2022-08-27T01:21:51.196Z,4.37
2022-08-27T01:23:02.718Z,5.40
2022-08-27T01:24:13.856Z,4.37
2022-08-27T01:25:19.321Z,4.93
2022-08-27T01:26:22.887Z,3.80
2022-08-27T01:27:28.258Z,4.63
2022-08-27T01:28:37.820Z,4.43
2022-08-27T01:29:40.845Z,5.23
2022-08-27T01:30:44.144Z,4.10
2022-08-27T01:31:46.127Z,3.97
2022-08-27T01:32:50.944Z,4.33
2022-08-27T01:33:58.229Z,3.40
2022-08-27T01:35:02.236Z,4.37
2022-08-27T01:36:05.148Z,3.53
2022-08-27T01:37:08.791Z,3.37
2022-08-27T01:38:12.012Z,4.63
2022-08-27T01:39:26.928Z,4.00
2022-08-27T01:40:30.595Z,3.40
2022-08-27T01:41:33.373Z,3.37
2022-08-27T01:42:38.811Z,3.80
2022-08-27T01:43:41.367Z,4.00
2022-08-27T01:44:46.369Z,2.80
2022-08-27T01:45:50.713Z,3.20
2022-08-27T01:46:52.713Z,3.33
2022-08-27T01:47:56.763Z,3.80
2022-08-27T01:48:58.504Z,3.17
2022-08-27T01:50:02.347Z,2.87
2022-08-27T01:51:04.670Z,2.80
2022-08-27T01:52:07.429Z,3.43
2022-08-27T01:53:15.533Z,3.00
2022-08-27T01:54:19.844Z,2.80
2022-08-27T01:55:26.362Z,3.50
2022-08-27T01:56:33.372Z,2.63
2022-08-27T01:57:39.830Z,2.90
2022-08-27T01:58:43.631Z,3.30
2022-08-27T01:59:46.652Z,3.70
2022-08-27T02:00:52.039Z,4.17
2022-08-27T02:01:59.748Z,4.57
2022-08-27T02:03:02.892Z,3.23
2022-08-27T02:04:05.646Z,2.97
2022-08-27T02:05:08.400Z,2.80
2022-08-27T02:06:13.001Z,3.10
2022-08-27T02:07:14.636Z,3.10
2022-08-27T02:08:18.564Z,3.00
2022-08-27T02:09:20.257Z,2.57
2022-08-27T02:10:25.524Z,2.80
2022-08-27T02:11:27.666Z,3.20
2022-08-27T02:12:31.673Z,2.90
2022-08-27T02:13:34.179Z,3.03
2022-08-27T02:14:36.931Z,2.80
2022-08-27T02:15:39.668Z,3.07
2022-08-27T02:16:52.077Z,3.23
2022-08-27T02:17:56.151Z,3.13
2022-08-27T02:18:58.172Z,4.10
2022-08-27T02:20:01.406Z,3.83
2022-08-27T02:21:03.098Z,2.90
2022-08-27T02:22:05.889Z,2.87
2022-08-27T02:23:08.788Z,3.90
2022-08-27T02:24:11.535Z,3.97
2022-08-27T02:25:15.364Z,3.50
2022-08-27T02:26:18.074Z,3.23
2022-08-27T02:27:21.411Z,3.37
2022-08-27T02:28:26.064Z,3.03
2022-08-27T02:29:27.860Z,3.20
2022-08-27T02:30:32.649Z,3.93
2022-08-27T02:31:36.935Z,3.60
2022-08-27T02:32:39.952Z,3.63
2022-08-27T02:33:41.875Z,3.10
2022-08-27T02:34:45.988Z,2.50
2022-08-27T02:35:47.646Z,3.67
2022-08-27T02:36:50.243Z,3.00
2022-08-27T02:37:52.145Z,3.90
2022-08-27T02:38:55.828Z,3.30
2022-08-27T02:39:58.847Z,3.80
2022-08-27T02:41:01.490Z,4.10
2022-08-27T02:42:03.680Z,4.97
2022-08-27T02:43:06.752Z,3.50
2022-08-27T02:44:11.193Z,3.67
2022-08-27T02:45:17.704Z,4.17
2022-08-27T02:46:20.282Z,3.73
2022-08-27T02:47:21.948Z,3.17
2022-08-27T02:48:25.446Z,3.47
2022-08-27T02:49:27.232Z,3.97
2022-08-27T02:50:30.288Z,3.67
2022-08-27T02:51:31.970Z,4.07
2022-08-27T02:52:36.552Z,3.37
2022-08-27T02:53:39.726Z,3.70
2022-08-27T02:54:42.441Z,4.63
2022-08-27T02:55:44.988Z,4.23
2022-08-27T02:56:47.646Z,3.80
2022-08-27T02:57:49.553Z,4.00
2022-08-27T02:58:52.428Z,4.03
2022-08-27T02:59:55.400Z,4.67
2022-08-27T03:00:58.391Z,4.20
2022-08-27T03:02:00.148Z,4.57
2022-08-27T03:03:03.828Z,5.40
2022-08-27T03:04:05.467Z,4.83
2022-08-27T03:05:10.088Z,4.93
2022-08-27T03:06:11.830Z,4.80
2022-08-27T03:07:18.894Z,4.47
2022-08-27T03:08:20.844Z,4.37
2022-08-27T03:09:23.497Z,4.20
2022-08-27T03:10:25.298Z,3.90
2022-08-27T03:11:27.997Z,4.97
2022-08-27T03:12:29.613Z,5.30
2022-08-27T03:13:32.180Z,5.70
2022-08-27T03:14:33.782Z,5.17
2022-08-27T03:15:37.925Z,5.77
2022-08-27T03:16:39.894Z,6.10
2022-08-27T03:18:02.689Z,6.07
2022-08-27T03:19:06.649Z,6.20
2022-08-27T03:20:12.089Z,7.07
2022-08-27T03:21:19.308Z,7.07
2022-08-27T03:22:21.089Z,6.97
2022-08-27T03:23:26.900Z,6.50
2022-08-27T03:24:28.486Z,7.90
2022-08-27T03:25:32.127Z,6.83
2022-08-27T03:26:34.737Z,8.07
2022-08-27T03:27:37.591Z,6.03
2022-08-27T03:28:39.351Z,5.60
2022-08-27T03:29:41.902Z,5.47
2022-08-27T03:30:48.572Z,5.63
2022-08-27T03:31:51.125Z,5.37
2022-08-27T03:32:52.889Z,5.90
2022-08-27T03:33:57.172Z,6.20
2022-08-27T03:34:59.095Z,4.70
2022-08-27T03:36:01.689Z,6.07
2022-08-27T03:37:04.314Z,5.93
2022-08-27T03:38:05.956Z,5.70
2022-08-27T03:39:08.561Z,5.90
2022-08-27T03:40:11.176Z,5.30
2022-08-27T03:41:18.010Z,5.17
2022-08-27T03:42:19.599Z,5.20
2022-08-27T03:43:23.513Z,6.00
2022-08-27T03:44:25.202Z,5.40
2022-08-27T03:45:27.924Z,4.70
2022-08-27T03:46:31.083Z,5.30
2022-08-27T03:47:34.622Z,5.67
2022-08-27T03:48:36.395Z,5.30
2022-08-27T03:49:39.231Z,5.20
2022-08-27T03:50:43.214Z,5.67
2022-08-27T03:51:46.213Z,5.63
2022-08-27T03:52:48.301Z,5.70
2022-08-27T03:53:51.065Z,5.40
2022-08-27T03:54:53.000Z,5.70
2022-08-27T03:55:56.341Z,5.20
2022-08-27T03:56:57.917Z,5.93
2022-08-27T03:58:00.491Z,6.30
2022-08-27T03:59:02.085Z,5.90
2022-08-27T04:00:07.296Z,6.00
2022-08-27T04:01:09.385Z,6.10
2022-08-27T04:02:14.940Z,7.20
2022-08-27T04:03:16.675Z,6.70
2022-08-27T04:04:19.263Z,6.23
2022-08-27T04:05:22.465Z,6.50
2022-08-27T04:06:25.042Z,7.00
2022-08-27T04:07:26.721Z,5.47
2022-08-27T04:08:30.857Z,5.50
2022-08-27T04:09:32.445Z,5.53
2022-08-27T04:10:35.177Z,6.00
2022-08-27T04:11:37.059Z,6.13
2022-08-27T04:12:41.500Z,5.43
2022-08-27T04:13:43.924Z,6.80
2022-08-27T04:14:46.927Z,5.33
2022-08-27T04:15:51.159Z,6.03
2022-08-27T04:16:54.348Z,5.53
2022-08-27T04:17:57.492Z,5.80
2022-08-27T04:19:00.510Z,7.13
2022-08-27T04:20:24.976Z,5.17
2022-08-27T04:21:26.719Z,5.40
2022-08-27T04:22:28.595Z,6.20
2022-08-27T04:23:31.498Z,5.47
2022-08-27T04:24:34.875Z,5.90
2022-08-27T04:25:40.985Z,5.17
2022-08-27T04:26:45.627Z,6.57
2022-08-27T04:27:48.343Z,7.00
2022-08-27T04:28:51.211Z,5.60
2022-08-27T04:29:55.819Z,5.73
2022-08-27T04:30:57.507Z,6.07
2022-08-27T04:32:00.166Z,5.90
2022-08-27T04:33:03.118Z,5.70
2022-08-27T04:34:07.605Z,5.33
2022-08-27T04:35:11.672Z,6.80
2022-08-27T04:36:14.932Z,7.13
2022-08-27T04:37:23.360Z,5.10
2022-08-27T04:38:26.158Z,6.27
2022-08-27T04:39:31.599Z,6.27
2022-08-27T04:40:51.719Z,6.60
2022-08-27T04:41:57.593Z,6.83
2022-08-27T04:42:59.237Z,6.90
2022-08-27T04:44:05.092Z,6.47
2022-08-27T04:45:07.684Z,6.30
2022-08-27T04:46:10.275Z,7.43
2022-08-27T04:47:13.287Z,7.87
2022-08-27T04:48:19.443Z,6.57
2022-08-27T04:49:21.270Z,7.30
2022-08-27T04:50:24.379Z,7.40
2022-08-27T04:51:26.383Z,8.30
2022-08-27T04:52:29.792Z,7.37
2022-08-27T04:53:31.396Z,7.17
2022-08-27T04:54:34.407Z,7.90
2022-08-27T04:55:41.580Z,6.90
2022-08-27T04:56:44.161Z,7.80
2022-08-27T04:57:45.801Z,7.43
2022-08-27T04:58:48.441Z,7.87
2022-08-27T04:59:51.071Z,7.43
2022-08-27T05:00:55.876Z,8.00
2022-08-27T05:01:58.461Z,7.73
2022-08-27T05:03:00.120Z,6.90
2022-08-27T05:04:04.673Z,6.93
2022-08-27T05:05:08.312Z,7.20
2022-08-27T05:06:10.469Z,7.47
2022-08-27T05:07:13.019Z,6.77
2022-08-27T05:08:14.785Z,7.70
2022-08-27T05:09:18.786Z,5.97
2022-08-27T05:10:21.701Z,7.10
2022-08-27T05:11:28.315Z,6.47
2022-08-27T05:12:29.914Z,6.67
2022-08-27T05:13:32.912Z,6.87
2022-08-27T05:14:35.842Z,6.30
2022-08-27T05:15:48.833Z,5.90
2022-08-27T05:16:50.553Z,5.40
2022-08-27T05:17:53.641Z,6.27
2022-08-27T05:18:55.804Z,5.73
2022-08-27T05:19:59.856Z,5.97
2022-08-27T05:21:01.677Z,6.00
2022-08-27T05:22:04.444Z,5.73
2022-08-27T05:23:06.093Z,5.33
2022-08-27T05:24:08.920Z,6.20
2022-08-27T05:25:11.203Z,6.30
2022-08-27T05:26:13.955Z,5.97
2022-08-27T05:27:15.675Z,7.23
2022-08-27T05:28:21.381Z,5.73
2022-08-27T05:29:31.626Z,5.80
2022-08-27T05:30:36.791Z,6.43
2022-08-27T05:31:40.782Z,6.13
2022-08-27T05:32:42.898Z,6.33
2022-08-27T05:33:46.359Z,6.80
2022-08-27T05:34:48.165Z,6.53
2022-08-27T05:35:53.753Z,6.33
2022-08-27T05:36:55.336Z,7.23
2022-08-27T05:38:00.186Z,7.10
2022-08-27T05:39:04.537Z,6.57
2022-08-27T05:40:08.454Z,6.70
2022-08-27T05:41:12.772Z,6.67
2022-08-27T05:42:15.657Z,5.80
2022-08-27T05:43:18.522Z,5.70
2022-08-27T05:45:44.337Z,6.10
2022-08-27T05:46:46.902Z,6.23
2022-08-27T05:47:48.849Z,5.33
2022-08-27T05:48:52.633Z,5.10
2022-08-27T05:49:55.142Z,5.77
2022-08-27T05:50:59.203Z,5.80
2022-08-27T05:52:00.800Z,5.53
2022-08-27T05:53:03.396Z,5.87
2022-08-27T05:54:08.822Z,6.20
2022-08-27T05:55:12.347Z,6.20
2022-08-27T05:56:15.667Z,5.40
2022-08-27T05:57:18.251Z,5.70
2022-08-27T05:58:38.667Z,5.43
2022-08-27T05:59:58.888Z,5.43
2022-08-27T06:01:10.101Z,6.00
2022-08-27T06:02:13.170Z,5.27
2022-08-27T06:03:14.757Z,5.53
2022-08-27T06:04:18.851Z,4.97
2022-08-27T06:05:20.794Z,5.33
2022-08-27T06:06:24.931Z,5.20
2022-08-27T06:07:26.592Z,5.07
2022-08-27T06:08:29.257Z,5.70
2022-08-27T06:09:30.864Z,5.73
2022-08-27T06:10:33.613Z,6.20
2022-08-27T06:11:36.213Z,5.20
2022-08-27T06:12:39.023Z,6.57
2022-08-27T06:13:40.811Z,6.20
2022-08-27T06:14:46.251Z,5.60
2022-08-27T06:15:47.923Z,6.27
2022-08-27T06:16:50.754Z,5.30
2022-08-27T06:17:53.028Z,5.40
2022-08-27T06:18:57.524Z,5.00
2022-08-27T06:19:59.303Z,5.13
2022-08-27T06:21:02.061Z,5.60
2022-08-27T06:22:10.636Z,5.17
2022-08-27T06:23:13.642Z,6.00
2022-08-27T06:24:15.232Z,5.40
2022-08-27T06:25:18.103Z,5.17
2022-08-27T06:26:22.769Z,4.33
2022-08-27T06:27:25.537Z,4.30
2022-08-27T06:28:29.562Z,4.03
2022-08-27T06:29:34.983Z,4.20
2022-08-27T06:30:36.596Z,3.90
2022-08-27T06:31:40.684Z,4.40
2022-08-27T06:32:42.518Z,4.43
2022-08-27T06:33:46.305Z,4.77
2022-08-27T06:34:48.626Z,4.40
2022-08-27T06:35:51.522Z,4.57
2022-08-27T06:36:53.500Z,3.50
2022-08-27T06:37:57.445Z,4.33
2022-08-27T06:38:59.875Z,3.47
2022-08-27T06:40:02.467Z,3.50
2022-08-27T06:41:04.432Z,3.80
2022-08-27T06:42:07.685Z,3.53
2022-08-27T06:43:09.306Z,3.07
2022-08-27T06:44:13.054Z,3.33
2022-08-27T06:45:15.075Z,3.97
2022-08-27T06:46:19.968Z,3.60
2022-08-27T06:47:22.559Z,3.50
2022-08-27T06:48:24.409Z,4.03
2022-08-27T06:49:27.123Z,3.03
2022-08-27T06:50:28.829Z,2.93
2022-08-27T06:51:33.543Z,3.43
2022-08-27T06:52:35.235Z,3.43
2022-08-27T06:53:39.211Z,3.00
2022-08-27T06:54:40.857Z,3.17
2022-08-27T06:55:44.224Z,3.47
2022-08-27T06:56:46.219Z,3.30
2022-08-27T06:57:48.836Z,3.37
2022-08-27T06:58:52.651Z,3.43
2022-08-27T06:59:55.262Z,3.80
2022-08-27T07:00:57.192Z,3.90
2022-08-27T07:01:59.979Z,3.10
2022-08-27T07:03:03.889Z,3.17
2022-08-27T07:04:09.112Z,2.87
2022-08-27T07:05:11.924Z,3.80
2022-08-27T07:06:16.389Z,3.40
2022-08-27T07:07:31.742Z,3.70
2022-08-27T07:08:39.670Z,3.60
2022-08-27T07:09:42.218Z,3.77
2022-08-27T07:10:43.950Z,3.80
2022-08-27T07:11:46.532Z,3.63
2022-08-27T07:12:48.152Z,4.17
2022-08-27T07:13:51.360Z,3.47
2022-08-27T07:14:53.059Z,3.93
2022-08-27T07:15:56.091Z,3.60
2022-08-27T07:16:57.692Z,4.03
2022-08-27T07:18:00.484Z,3.10
2022-08-27T07:19:05.336Z,3.50
2022-08-27T07:20:09.541Z,4.03
2022-08-27T07:21:11.315Z,4.20
2022-08-27T07:22:14.221Z,3.03
2022-08-27T07:23:15.873Z,3.50
2022-08-27T07:24:19.790Z,3.50
2022-08-27T07:25:21.768Z,3.30
2022-08-27T07:26:24.918Z,3.83
2022-08-27T07:27:27.606Z,3.70
2022-08-27T07:28:30.740Z,4.00
2022-08-27T07:29:32.846Z,3.77
2022-08-27T07:30:37.463Z,3.70
2022-08-27T07:31:41.953Z,3.30
2022-08-27T07:32:44.673Z,3.90
2022-08-27T07:33:52.378Z,3.70
2022-08-27T07:34:55.851Z,3.33
2022-08-27T07:35:57.523Z,3.80
2022-08-27T07:37:00.144Z,3.50
2022-08-27T07:38:01.837Z,2.63
2022-08-27T07:39:04.899Z,3.97
2022-08-27T07:40:10.252Z,3.80
2022-08-27T07:41:15.431Z,3.70
2022-08-27T07:42:35.550Z,4.50
2022-08-27T07:43:56.400Z,4.67
2022-08-27T07:44:59.022Z,4.10
2022-08-27T07:46:02.066Z,2.87
2022-08-27T07:47:04.703Z,3.60
2022-08-27T07:48:07.373Z,3.47
2022-08-27T07:49:13.800Z,4.80
2022-08-27T07:50:16.385Z,3.20
2022-08-27T07:51:20.782Z,3.03
2022-08-27T07:52:26.449Z,3.50
2022-08-27T07:53:28.307Z,3.60
2022-08-27T07:54:30.939Z,3.70
2022-08-27T07:55:35.878Z,4.43
2022-08-27T07:56:38.471Z,3.90
2022-08-27T07:57:40.869Z,3.87
2022-08-27T07:58:44.023Z,5.00
2022-08-27T07:59:48.088Z,3.60
2022-08-27T08:00:49.865Z,4.83
2022-08-27T08:01:52.821Z,3.60
2022-08-27T08:02:54.542Z,3.93
2022-08-27T08:03:57.822Z,3.67
2022-08-27T08:04:59.848Z,3.70
2022-08-27T08:06:05.920Z,3.33
2022-08-27T08:07:07.534Z,3.87
2022-08-27T08:08:10.414Z,4.03
2022-08-27T08:09:12.373Z,2.97
2022-08-27T08:10:15.128Z,3.30
2022-08-27T08:11:18.763Z,3.60
2022-08-27T08:12:26.607Z,2.83
2022-08-27T08:13:30.079Z,3.30
2022-08-27T08:14:33.218Z,3.20
2022-08-27T08:15:35.541Z,2.80
2022-08-27T08:16:38.247Z,3.37
2022-08-27T08:17:40.372Z,3.47
2022-08-27T08:18:43.246Z,3.50
2022-08-27T08:19:57.220Z,3.97
2022-08-27T08:21:11.169Z,4.30
2022-08-27T08:22:12.917Z,3.83
2022-08-27T08:23:15.950Z,4.00
2022-08-27T08:24:18.274Z,3.63
2022-08-27T08:25:21.025Z,3.60
2022-08-27T08:26:24.198Z,3.90
2022-08-27T08:27:27.537Z,3.20
2022-08-27T08:28:31.461Z,3.50
2022-08-27T08:29:34.234Z,3.37
2022-08-27T08:30:35.950Z,3.90
2022-08-27T08:31:38.644Z,3.20
2022-08-27T08:32:40.363Z,3.77
2022-08-27T08:33:43.032Z,4.00
2022-08-27T08:34:44.647Z,3.07
2022-08-27T08:35:48.773Z,3.60
2022-08-27T08:36:54.916Z,3.90
2022-08-27T08:37:57.952Z,3.27
2022-08-27T08:38:59.701Z,3.90
2022-08-27T08:40:03.238Z,4.00
2022-08-27T08:41:07.232Z,4.10
2022-08-27T08:42:28.038Z,4.03
2022-08-27T08:43:33.499Z,3.57
2022-08-27T08:44:41.574Z,3.93
2022-08-27T08:45:45.158Z,4.93
2022-08-27T08:46:53.513Z,3.67
2022-08-27T08:48:04.942Z,3.93
2022-08-27T08:49:16.294Z,3.70
2022-08-27T08:50:26.175Z,3.60
2022-08-27T08:51:34.140Z,4.17
2022-08-27T08:52:43.629Z,4.30
2022-08-27T08:53:53.242Z,4.83
2022-08-27T08:54:58.164Z,3.83
2022-08-27T08:56:04.383Z,4.07
2022-08-27T08:57:18.667Z,3.80
2022-08-27T08:58:34.493Z,3.63
2022-08-27T08:59:38.767Z,3.83
2022-08-27T09:00:44.582Z,3.60
2022-08-27T09:01:49.669Z,3.60
2022-08-27T09:02:54.741Z,3.83
2022-08-27T09:04:00.424Z,4.40
2022-08-27T09:05:07.288Z,4.03
2022-08-27T09:06:15.276Z,4.43
2022-08-27T09:07:26.187Z,4.60
2022-08-27T09:08:37.922Z,3.87
2022-08-27T09:09:51.801Z,3.70
2022-08-27T09:11:00.812Z,3.50
2022-08-27T09:12:10.712Z,4.17
2022-08-27T09:13:21.492Z,4.07
2022-08-27T09:14:33.867Z,3.77
2022-08-27T09:15:38.052Z,3.30
2022-08-27T09:16:40.740Z,3.80
2022-08-27T09:17:42.909Z,4.43
2022-08-27T09:18:51.072Z,3.73
2022-08-27T09:19:53.175Z,3.23
2022-08-27T09:21:01.668Z,3.50
2022-08-27T09:22:19.032Z,3.17
2022-08-27T09:23:25.771Z,3.40
2022-08-27T09:24:38.192Z,3.67
2022-08-27T09:25:42.489Z,3.53
2022-08-27T09:26:45.772Z,3.57
2022-08-27T09:27:49.152Z,3.70
2022-08-27T09:29:15.735Z,3.23
2022-08-27T09:30:27.437Z,3.20
2022-08-27T09:31:36.636Z,3.40
2022-08-27T09:32:40.171Z,3.10
2022-08-27T09:33:56.445Z,3.97
2022-08-27T09:35:02.685Z,4.30
2022-08-27T09:36:08.683Z,4.70
2022-08-27T09:37:16.181Z,3.33
2022-08-27T09:38:26.855Z,3.87
2022-08-27T09:39:34.805Z,3.20
2022-08-27T09:40:41.373Z,4.87
2022-08-27T09:41:47.098Z,3.70
2022-08-27T09:42:53.126Z,4.10
2022-08-27T09:43:59.359Z,4.30
2022-08-27T09:45:01.986Z,3.40
2022-08-27T09:46:18.305Z,4.13
2022-08-27T09:47:20.961Z,3.70
2022-08-27T09:48:26.477Z,4.57
2022-08-27T09:49:29.664Z,4.10
2022-08-27T09:50:38.613Z,3.77
2022-08-27T09:51:47.280Z,4.00
2022-08-27T09:52:55.134Z,4.23
2022-08-27T09:54:00.815Z,4.17
2022-08-27T09:55:02.829Z,3.70
2022-08-27T09:56:10.597Z,4.27
2022-08-27T09:57:26.259Z,5.30
2022-08-27T09:58:48.252Z,3.47
2022-08-27T09:59:54.336Z,4.30
2022-08-27T10:01:02.841Z,3.53
2022-08-27T10:02:15.145Z,2.87
2022-08-27T10:03:22.524Z,3.53
2022-08-27T10:04:28.335Z,3.33
2022-08-27T10:05:36.443Z,3.13
2022-08-27T10:06:44.947Z,3.30
2022-08-27T10:07:53.761Z,3.40
2022-08-27T10:09:06.526Z,3.30
2022-08-27T10:10:17.859Z,3.47
2022-08-27T10:11:25.948Z,4.00
2022-08-27T10:12:34.976Z,2.97
2022-08-27T10:13:46.632Z,3.00
2022-08-27T10:14:52.555Z,3.40
2022-08-27T10:16:09.684Z,2.83
2022-08-27T10:17:20.243Z,3.40
2022-08-27T10:18:32.884Z,2.60
2022-08-27T10:19:54.220Z,3.30
2022-08-27T10:21:05.997Z,2.70
2022-08-27T10:22:27.277Z,3.20
2022-08-27T10:23:35.355Z,4.33
2022-08-27T10:24:51.859Z,3.70
2022-08-27T10:26:00.168Z,3.50
2022-08-27T10:27:10.467Z,3.40
2022-08-27T10:28:24.405Z,3.83
2022-08-27T10:29:38.356Z,3.70
2022-08-27T10:30:59.452Z,2.97
2022-08-27T10:32:11.715Z,3.00
2022-08-27T10:33:27.119Z,3.73
2022-08-27T10:34:43.347Z,2.80
2022-08-27T10:35:55.005Z,3.40
2022-08-27T10:37:07.954Z,2.93
2022-08-27T10:38:15.742Z,3.33
2022-08-27T10:39:40.059Z,3.63
2022-08-27T10:40:50.849Z,3.87
2022-08-27T10:42:11.514Z,3.33
2022-08-27T10:43:28.357Z,3.37
2022-08-27T10:44:52.390Z,3.63
2022-08-27T10:46:05.017Z,2.97
2022-08-27T10:47:16.591Z,4.10
2022-08-27T10:48:30.046Z,3.30
2022-08-27T10:49:43.629Z,4.20
2022-08-27T10:50:50.970Z,3.23
2022-08-27T10:52:04.222Z,3.70
2022-08-27T10:53:19.250Z,3.77
2022-08-27T10:54:28.196Z,3.50
2022-08-27T10:55:33.996Z,2.90
2022-08-27T10:56:40.319Z,3.70
2022-08-27T10:58:07.795Z,3.03
2022-08-27T10:59:25.499Z,3.57
2022-08-27T11:00:34.595Z,3.40
2022-08-27T11:01:48.524Z,3.53
2022-08-27T11:02:55.108Z,3.50
2022-08-27T11:04:04.118Z,3.60
2022-08-27T11:05:16.265Z,3.57
2022-08-27T11:06:25.779Z,3.20
2022-08-27T11:07:33.500Z,3.50
2022-08-27T11:08:41.819Z,3.10
2022-08-27T11:09:50.798Z,3.40
2022-08-27T11:11:13.694Z,2.90
2022-08-27T11:12:29.136Z,3.30
2022-08-27T11:13:34.113Z,3.27
2022-08-27T11:14:44.237Z,4.07
2022-08-27T11:15:49.227Z,3.00
2022-08-27T11:17:14.151Z,3.43
2022-08-27T11:18:22.206Z,3.50
2022-08-27T11:19:32.635Z,3.37
2022-08-27T11:20:41.291Z,3.20
2022-08-27T11:21:48.354Z,3.40
2022-08-27T11:22:56.126Z,3.80
2022-08-27T11:24:02.630Z,4.20
2022-08-27T11:25:15.004Z,3.20
2022-08-27T11:26:16.691Z,3.50
2022-08-27T11:27:24.880Z,3.73
2022-08-27T11:28:37.308Z,4.40
2022-08-27T11:29:49.540Z,3.97
2022-08-27T11:31:00.687Z,3.83
2022-08-27T11:32:11.992Z,3.90
2022-08-27T11:33:21.244Z,4.97
2022-08-27T11:34:27.430Z,4.80
2022-08-27T11:35:41.791Z,6.27
2022-08-27T11:37:06.031Z,5.17
2022-08-27T11:38:30.042Z,6.03
2022-08-27T11:39:51.869Z,5.23
2022-08-27T11:41:06.568Z,5.23
2022-08-27T11:42:15.013Z,6.27
2022-08-27T11:43:20.467Z,5.60
2022-08-27T11:44:26.643Z,5.40
2022-08-27T11:45:31.141Z,5.10
2022-08-27T11:46:44.719Z,6.20
2022-08-27T11:47:56.761Z,6.03
2022-08-27T11:49:01.714Z,5.40
2022-08-27T11:50:08.515Z,5.80
2022-08-27T11:51:14.311Z,5.90
2022-08-27T11:52:25.092Z,5.03
2022-08-27T11:53:30.735Z,5.20
2022-08-27T11:54:49.204Z,4.70
2022-08-27T11:55:50.773Z,4.97
2022-08-27T11:56:53.494Z,4.50
2022-08-27T11:58:08.761Z,4.47
2022-08-27T11:59:21.293Z,4.43
2022-08-27T12:00:34.380Z,4.53
2022-08-27T12:01:38.559Z,5.87
2022-08-27T12:02:40.903Z,5.77
2022-08-27T12:03:44.924Z,4.90
2022-08-27T12:04:47.482Z,5.10
2022-08-27T12:06:11.167Z,4.73
2022-08-27T12:07:29.281Z,5.00
2022-08-27T12:08:35.141Z,4.70
2022-08-27T12:09:54.169Z,5.20
2022-08-27T12:11:12.581Z,4.53
2022-08-27T12:12:20.575Z,5.13
2022-08-27T12:13:29.515Z,3.70
2022-08-27T12:14:44.563Z,4.30
2022-08-27T12:16:04.610Z,4.60
2022-08-27T12:17:14.382Z,4.40
2022-08-27T12:18:36.629Z,5.70
2022-08-27T12:19:56.304Z,4.17
2022-08-27T12:21:10.547Z,5.40
2022-08-27T12:22:25.217Z,4.70
2022-08-27T12:23:42.599Z,5.27
2022-08-27T12:24:52.027Z,4.70
2022-08-27T12:26:00.625Z,5.00
2022-08-27T12:27:16.920Z,5.40
2022-08-27T12:28:26.855Z,4.33
2022-08-27T12:29:41.022Z,5.13
2022-08-27T12:30:50.317Z,4.27
2022-08-27T12:32:01.469Z,3.90
2022-08-27T12:33:12.752Z,3.70
2022-08-27T12:34:16.592Z,4.50
2022-08-27T12:35:27.778Z,4.00
2022-08-27T12:36:33.476Z,3.83
2022-08-27T12:37:40.436Z,3.60
2022-08-27T12:38:50.643Z,3.50
2022-08-27T12:39:56.522Z,3.77
2022-08-27T12:41:03.825Z,3.73
2022-08-27T12:42:14.226Z,3.30
2022-08-27T12:43:20.727Z,4.40
2022-08-27T12:44:28.558Z,3.50
2022-08-27T12:45:30.824Z,2.90
2022-08-27T12:46:34.040Z,3.10
2022-08-27T12:47:42.671Z,3.53
2022-08-27T12:49:35.855Z,2.90
2022-08-27T12:50:30.547Z,2.80
2022-08-27T12:51:36.141Z,3.23
2022-08-27T12:52:54.498Z,3.23
2022-08-27T12:54:05.631Z,3.00
2022-08-27T12:55:18.513Z,3.10
2022-08-27T12:56:35.551Z,3.20
2022-08-27T12:57:45.033Z,3.10
2022-08-27T12:58:57.238Z,3.30
2022-08-27T13:00:10.049Z,3.00
2022-08-27T13:01:34.188Z,3.20
2022-08-27T13:03:13.672Z,3.07
2022-08-27T13:04:21.473Z,3.70
2022-08-27T13:05:26.775Z,2.80
2022-08-27T13:06:32.975Z,2.63
2022-08-27T13:07:41.215Z,2.90
2022-08-27T13:08:43.849Z,2.53
2022-08-27T13:09:46.380Z,2.83
2022-08-27T13:10:48.965Z,2.97
2022-08-27T13:11:55.602Z,3.57
2022-08-27T13:13:04.327Z,3.40
2022-08-27T13:14:09.613Z,3.27
2022-08-27T13:15:15.617Z,2.90
2022-08-27T13:16:20.417Z,3.30
2022-08-27T13:17:23.365Z,2.53
2022-08-27T13:18:29.974Z,3.00
2022-08-27T13:19:36.541Z,2.73
2022-08-27T13:20:41.500Z,2.70
2022-08-27T13:21:56.230Z,3.40
2022-08-27T13:22:57.882Z,2.70
2022-08-27T13:24:02.915Z,3.10
2022-08-27T13:25:05.769Z,2.97
2022-08-27T13:26:10.416Z,2.60
2022-08-27T13:27:12.353Z,2.77
2022-08-27T13:28:16.977Z,3.13
2022-08-27T13:29:19.781Z,2.70
2022-08-27T13:30:35.124Z,2.87
2022-08-27T13:31:39.157Z,2.60
2022-08-27T13:32:41.622Z,2.70
2022-08-27T13:33:45.469Z,3.10
2022-08-27T13:34:47.927Z,3.00
2022-08-27T13:35:52.355Z,3.20
2022-08-27T13:36:58.142Z,3.20
2022-08-27T13:38:03.225Z,3.40
2022-08-27T13:39:07.188Z,2.70
2022-08-27T13:40:10.623Z,3.27
2022-08-27T13:41:23.259Z,2.90
2022-08-27T13:42:27.031Z,3.03
2022-08-27T13:43:35.307Z,2.90
2022-08-27T13:44:41.046Z,2.70
2022-08-27T13:45:51.409Z,2.37
2022-08-27T13:47:00.755Z,3.13
2022-08-27T13:48:04.177Z,2.40
2022-08-27T13:49:08.972Z,3.27
2022-08-27T13:50:17.918Z,2.57
2022-08-27T13:51:29.187Z,2.70
2022-08-27T13:52:34.099Z,2.47
2022-08-27T13:53:55.617Z,2.63
2022-08-27T13:55:05.693Z,2.90
2022-08-27T13:56:07.889Z,2.80
2022-08-27T13:57:13.456Z,3.10
2022-08-27T13:58:19.731Z,2.70
2022-08-27T13:59:26.484Z,2.70
2022-08-27T14:00:31.678Z,2.43
2022-08-27T14:01:34.407Z,2.50
2022-08-27T14:02:36.231Z,2.30
2022-08-27T14:03:49.000Z,2.90
2022-08-27T14:05:05.745Z,2.30
2022-08-27T14:06:08.341Z,2.50
2022-08-27T14:07:15.280Z,2.40
2022-08-27T14:08:19.310Z,2.20
2022-08-27T14:09:25.989Z,2.67
2022-08-27T14:10:32.706Z,2.80
2022-08-27T14:11:35.450Z,2.80
2022-08-27T14:12:41.097Z,1.87
2022-08-27T14:13:47.281Z,2.57
2022-08-27T14:14:54.312Z,2.53
2022-08-27T14:15:59.063Z,2.70
2022-08-27T14:17:02.971Z,2.90
2022-08-27T14:18:08.263Z,2.13
2022-08-27T14:19:14.419Z,2.70
2022-08-27T14:20:17.696Z,3.03
2022-08-27T14:21:21.488Z,2.40
2022-08-27T14:22:24.438Z,2.40
2022-08-27T14:23:27.584Z,2.57
2022-08-27T14:24:29.223Z,2.70
2022-08-27T14:25:34.376Z,2.60
2022-08-27T14:26:36.064Z,2.50
2022-08-27T14:27:40.581Z,2.60
2022-08-27T14:28:49.496Z,2.97
2022-08-27T14:29:52.100Z,2.73
2022-08-27T14:30:53.872Z,3.00
2022-08-27T14:31:56.526Z,3.00
2022-08-27T14:33:00.109Z,3.20
2022-08-27T14:34:02.677Z,2.97
2022-08-27T14:35:05.357Z,2.50
2022-08-27T14:36:09.391Z,3.10
2022-08-27T14:37:12.248Z,2.50
2022-08-27T14:38:18.512Z,2.70
2022-08-27T14:39:26.115Z,3.00
2022-08-27T14:40:28.839Z,3.13